sensor_id;sensor_type;location;lat;lon;timestamp;P1;durP1;ratioP1;P2;durP2;ratioP2
42662;SDS011;44330;51.360;6.686;2022-12-05T00:01:14;61.85;;;24.63;;
42662;SDS011;44330;51.360;6.686;2022-12-05T00:03:49;68.68;;;27.10;;
42662;SDS011;44330;51.360;6.686;2022-12-05T00:06:16;63.38;;;26.67;;
42662;SDS011;44330;51.360;6.686;2022-12-05T00:08:42;129.07;;;49.05;;
42662;SDS011;44330;51.360;6.686;2022-12-05T00:11:16;120.57;;;46.17;;
42662;SDS011;44330;51.360;6.686;2022-12-05T00:13:43;103.97;;;38.90;;
42662;SDS011;44330;51.360;6.686;2022-12-05T00:16:10;64.50;;;28.95;;
42662;SDS011;44330;51.360;6.686;2022-12-05T00:18:37;58.33;;;25.58;;
42662;SDS011;44330;51.360;6.686;2022-12-05T00:21:03;60.65;;;24.58;;
42662;SDS011;44330;51.360;6.686;2022-12-05T00:23:30;55.58;;;24.13;;
42662;SDS011;44330;51.360;6.686;2022-12-05T00:25:56;54.65;;;23.33;;
42662;SDS011;44330;51.360;6.686;2022-12-05T00:28:25;63.60;;;27.58;;
42662;SDS011;44330;51.360;6.686;2022-12-05T00:30:50;65.43;;;27.88;;
42662;SDS011;44330;51.360;6.686;2022-12-05T00:33:16;65.28;;;28.60;;
42662;SDS011;44330;51.360;6.686;2022-12-05T00:35:41;58.80;;;27.35;;
42662;SDS011;44330;51.360;6.686;2022-12-05T00:38:07;57.17;;;27.38;;
42662;SDS011;44330;51.360;6.686;2022-12-05T00:40:34;62.47;;;27.20;;
42662;SDS011;44330;51.360;6.686;2022-12-05T00:43:00;58.50;;;26.40;;
42662;SDS011;44330;51.360;6.686;2022-12-05T00:45:25;59.60;;;27.02;;
42662;SDS011;44330;51.360;6.686;2022-12-05T00:47:51;64.55;;;28.15;;
42662;SDS011;44330;51.360;6.686;2022-12-05T00:50:16;61.25;;;27.00;;
42662;SDS011;44330;51.360;6.686;2022-12-05T00:52:42;66.15;;;28.88;;
42662;SDS011;44330;51.360;6.686;2022-12-05T00:55:08;61.25;;;28.60;;
42662;SDS011;44330;51.360;6.686;2022-12-05T00:57:33;60.72;;;27.70;;
42662;SDS011;44330;51.360;6.686;2022-12-05T00:59:59;67.97;;;29.77;;
42662;SDS011;44330;51.360;6.686;2022-12-05T01:02:24;65.70;;;29.33;;
42662;SDS011;44330;51.360;6.686;2022-12-05T01:04:50;72.20;;;29.75;;
42662;SDS011;44330;51.360;6.686;2022-12-05T01:07:15;62.55;;;27.38;;
42662;SDS011;44330;51.360;6.686;2022-12-05T01:09:41;59.25;;;27.40;;
42662;SDS011;44330;51.360;6.686;2022-12-05T01:12:06;68.18;;;27.23;;
42662;SDS011;44330;51.360;6.686;2022-12-05T01:14:32;68.28;;;28.40;;
42662;SDS011;44330;51.360;6.686;2022-12-05T01:16:58;62.53;;;26.90;;
42662;SDS011;44330;51.360;6.686;2022-12-05T01:19:25;66.25;;;27.17;;
42662;SDS011;44330;51.360;6.686;2022-12-05T01:21:53;70.75;;;29.75;;
42662;SDS011;44330;51.360;6.686;2022-12-05T01:24:19;65.60;;;27.83;;
42662;SDS011;44330;51.360;6.686;2022-12-05T01:26:46;57.58;;;26.70;;
42662;SDS011;44330;51.360;6.686;2022-12-05T01:29:13;70.43;;;26.70;;
42662;SDS011;44330;51.360;6.686;2022-12-05T01:31:40;54.00;;;25.83;;
42662;SDS011;44330;51.360;6.686;2022-12-05T01:34:07;66.60;;;29.35;;
42662;SDS011;44330;51.360;6.686;2022-12-05T01:36:35;67.68;;;26.85;;
42662;SDS011;44330;51.360;6.686;2022-12-05T01:39:00;56.97;;;26.15;;
42662;SDS011;44330;51.360;6.686;2022-12-05T01:41:29;82.60;;;32.35;;
42662;SDS011;44330;51.360;6.686;2022-12-05T01:46:51;79.03;;;32.15;;
42662;SDS011;44330;51.360;6.686;2022-12-05T01:49:25;67.95;;;27.95;;
42662;SDS011;44330;51.360;6.686;2022-12-05T01:52:01;54.45;;;24.98;;
42662;SDS011;44330;51.360;6.686;2022-12-05T01:54:34;62.53;;;27.20;;
42662;SDS011;44330;51.360;6.686;2022-12-05T01:57:02;63.40;;;26.97;;
42662;SDS011;44330;51.360;6.686;2022-12-05T01:59:31;57.45;;;26.65;;
42662;SDS011;44330;51.360;6.686;2022-12-05T02:04:25;60.10;;;25.13;;
42662;SDS011;44330;51.360;6.686;2022-12-05T02:06:51;81.78;;;33.00;;
42662;SDS011;44330;51.360;6.686;2022-12-05T02:09:17;65.30;;;27.48;;
42662;SDS011;44330;51.360;6.686;2022-12-05T02:11:45;58.50;;;26.85;;
42662;SDS011;44330;51.360;6.686;2022-12-05T02:17:13;57.80;;;25.67;;
42662;SDS011;44330;51.360;6.686;2022-12-05T02:22:48;53.22;;;23.80;;
42662;SDS011;44330;51.360;6.686;2022-12-05T02:26:01;50.53;;;23.45;;
42662;SDS011;44330;51.360;6.686;2022-12-05T02:32:01;50.92;;;24.33;;
42662;SDS011;44330;51.360;6.686;2022-12-05T02:37:17;55.53;;;25.05;;
42662;SDS011;44330;51.360;6.686;2022-12-05T02:39:50;51.65;;;26.58;;
42662;SDS011;44330;51.360;6.686;2022-12-05T02:42:28;58.08;;;26.15;;
42662;SDS011;44330;51.360;6.686;2022-12-05T02:45:07;57.85;;;25.52;;
42662;SDS011;44330;51.360;6.686;2022-12-05T02:47:36;53.03;;;26.20;;
42662;SDS011;44330;51.360;6.686;2022-12-05T02:50:06;60.08;;;28.13;;
42662;SDS011;44330;51.360;6.686;2022-12-05T02:55:01;55.40;;;24.63;;
42662;SDS011;44330;51.360;6.686;2022-12-05T02:57:28;58.97;;;27.23;;
42662;SDS011;44330;51.360;6.686;2022-12-05T02:59:54;58.08;;;27.38;;
42662;SDS011;44330;51.360;6.686;2022-12-05T03:02:26;63.80;;;28.20;;
42662;SDS011;44330;51.360;6.686;2022-12-05T03:04:57;53.17;;;25.98;;
42662;SDS011;44330;51.360;6.686;2022-12-05T03:07:34;60.30;;;27.80;;
42662;SDS011;44330;51.360;6.686;2022-12-05T03:10:03;53.97;;;24.83;;
42662;SDS011;44330;51.360;6.686;2022-12-05T03:12:32;61.08;;;27.60;;
42662;SDS011;44330;51.360;6.686;2022-12-05T03:17:30;70.63;;;28.52;;
42662;SDS011;44330;51.360;6.686;2022-12-05T03:20:05;68.70;;;29.88;;
42662;SDS011;44330;51.360;6.686;2022-12-05T03:22:34;59.22;;;27.90;;
42662;SDS011;44330;51.360;6.686;2022-12-05T03:25:06;64.65;;;29.15;;
42662;SDS011;44330;51.360;6.686;2022-12-05T03:27:40;60.95;;;28.35;;
42662;SDS011;44330;51.360;6.686;2022-12-05T03:30:17;60.35;;;28.35;;
42662;SDS011;44330;51.360;6.686;2022-12-05T03:32:53;64.88;;;28.85;;
42662;SDS011;44330;51.360;6.686;2022-12-05T03:35:34;70.63;;;29.05;;
42662;SDS011;44330;51.360;6.686;2022-12-05T03:38:15;62.47;;;28.27;;
42662;SDS011;44330;51.360;6.686;2022-12-05T03:40:53;65.13;;;29.13;;
42662;SDS011;44330;51.360;6.686;2022-12-05T03:48:55;68.28;;;29.67;;
42662;SDS011;44330;51.360;6.686;2022-12-05T03:51:34;64.10;;;28.77;;
42662;SDS011;44330;51.360;6.686;2022-12-05T03:54:11;67.25;;;29.75;;
42662;SDS011;44330;51.360;6.686;2022-12-05T03:56:43;67.97;;;30.50;;
42662;SDS011;44330;51.360;6.686;2022-12-05T03:59:15;63.78;;;29.25;;
42662;SDS011;44330;51.360;6.686;2022-12-05T04:01:43;69.07;;;29.73;;
42662;SDS011;44330;51.360;6.686;2022-12-05T04:04:13;66.45;;;29.70;;
42662;SDS011;44330;51.360;6.686;2022-12-05T04:06:45;72.15;;;29.60;;
42662;SDS011;44330;51.360;6.686;2022-12-05T04:09:20;65.88;;;29.70;;
42662;SDS011;44330;51.360;6.686;2022-12-05T04:11:58;72.15;;;31.73;;
42662;SDS011;44330;51.360;6.686;2022-12-05T04:14:30;93.82;;;37.58;;
42662;SDS011;44330;51.360;6.686;2022-12-05T04:17:03;89.38;;;36.78;;
42662;SDS011;44330;51.360;6.686;2022-12-05T04:22:44;61.70;;;28.27;;
42662;SDS011;44330;51.360;6.686;2022-12-05T04:25:11;65.10;;;28.27;;
42662;SDS011;44330;51.360;6.686;2022-12-05T04:30:53;71.20;;;29.23;;
42662;SDS011;44330;51.360;6.686;2022-12-05T04:38:50;64.82;;;28.92;;
42662;SDS011;44330;51.360;6.686;2022-12-05T04:41:25;64.90;;;28.88;;
42662;SDS011;44330;51.360;6.686;2022-12-05T04:43:56;62.28;;;29.00;;
42662;SDS011;44330;51.360;6.686;2022-12-05T04:46:25;62.45;;;27.80;;
42662;SDS011;44330;51.360;6.686;2022-12-05T04:48:54;68.53;;;29.77;;
42662;SDS011;44330;51.360;6.686;2022-12-05T04:51:25;67.57;;;27.85;;
42662;SDS011;44330;51.360;6.686;2022-12-05T04:53:56;59.45;;;27.25;;
42662;SDS011;44330;51.360;6.686;2022-12-05T04:56:26;63.53;;;28.27;;
42662;SDS011;44330;51.360;6.686;2022-12-05T04:58:55;55.38;;;26.02;;
42662;SDS011;44330;51.360;6.686;2022-12-05T05:03:56;54.95;;;26.40;;
42662;SDS011;44330;51.360;6.686;2022-12-05T05:06:30;60.67;;;26.38;;
42662;SDS011;44330;51.360;6.686;2022-12-05T05:08:56;56.83;;;25.30;;
42662;SDS011;44330;51.360;6.686;2022-12-05T05:11:26;49.08;;;25.00;;
42662;SDS011;44330;51.360;6.686;2022-12-05T05:13:54;53.72;;;25.88;;
42662;SDS011;44330;51.360;6.686;2022-12-05T05:16:23;50.97;;;26.00;;
42662;SDS011;44330;51.360;6.686;2022-12-05T05:18:53;55.33;;;25.35;;
42662;SDS011;44330;51.360;6.686;2022-12-05T05:23:49;56.53;;;23.40;;
42662;SDS011;44330;51.360;6.686;2022-12-05T05:26:16;47.20;;;22.95;;
42662;SDS011;44330;51.360;6.686;2022-12-05T05:28:42;49.80;;;23.25;;
42662;SDS011;44330;51.360;6.686;2022-12-05T05:31:08;49.88;;;23.58;;
42662;SDS011;44330;51.360;6.686;2022-12-05T05:33:34;47.97;;;21.58;;
42662;SDS011;44330;51.360;6.686;2022-12-05T05:36:01;50.33;;;23.10;;
42662;SDS011;44330;51.360;6.686;2022-12-05T05:38:34;58.80;;;24.75;;
42662;SDS011;44330;51.360;6.686;2022-12-05T05:41:03;48.10;;;23.13;;
42662;SDS011;44330;51.360;6.686;2022-12-05T05:43:29;49.88;;;24.42;;
42662;SDS011;44330;51.360;6.686;2022-12-05T05:45:54;53.72;;;24.08;;
42662;SDS011;44330;51.360;6.686;2022-12-05T05:48:20;53.78;;;25.58;;
42662;SDS011;44330;51.360;6.686;2022-12-05T05:50:46;55.97;;;25.45;;
42662;SDS011;44330;51.360;6.686;2022-12-05T05:53:11;60.50;;;25.85;;
42662;SDS011;44330;51.360;6.686;2022-12-05T05:55:40;57.30;;;25.10;;
42662;SDS011;44330;51.360;6.686;2022-12-05T05:58:06;61.55;;;25.98;;
42662;SDS011;44330;51.360;6.686;2022-12-05T06:00:32;54.20;;;24.92;;
42662;SDS011;44330;51.360;6.686;2022-12-05T06:02:57;55.58;;;24.27;;
42662;SDS011;44330;51.360;6.686;2022-12-05T06:05:23;51.15;;;23.80;;
42662;SDS011;44330;51.360;6.686;2022-12-05T06:07:50;55.58;;;24.50;;
42662;SDS011;44330;51.360;6.686;2022-12-05T06:10:16;51.38;;;24.80;;
42662;SDS011;44330;51.360;6.686;2022-12-05T06:12:42;57.90;;;26.88;;
42662;SDS011;44330;51.360;6.686;2022-12-05T06:15:08;58.22;;;25.27;;
42662;SDS011;44330;51.360;6.686;2022-12-05T06:17:33;52.72;;;24.85;;
42662;SDS011;44330;51.360;6.686;2022-12-05T06:19:59;54.65;;;25.05;;
42662;SDS011;44330;51.360;6.686;2022-12-05T06:22:25;54.00;;;24.25;;
42662;SDS011;44330;51.360;6.686;2022-12-05T06:24:50;50.25;;;24.40;;
42662;SDS011;44330;51.360;6.686;2022-12-05T06:27:16;50.58;;;23.40;;
42662;SDS011;44330;51.360;6.686;2022-12-05T06:29:41;56.30;;;24.58;;
42662;SDS011;44330;51.360;6.686;2022-12-05T06:32:07;53.45;;;24.88;;
42662;SDS011;44330;51.360;6.686;2022-12-05T06:34:33;54.42;;;24.65;;
42662;SDS011;44330;51.360;6.686;2022-12-05T06:36:59;54.17;;;25.05;;
42662;SDS011;44330;51.360;6.686;2022-12-05T06:39:25;52.33;;;24.15;;
42662;SDS011;44330;51.360;6.686;2022-12-05T06:41:51;50.42;;;23.40;;
42662;SDS011;44330;51.360;6.686;2022-12-05T06:44:17;51.30;;;23.27;;
42662;SDS011;44330;51.360;6.686;2022-12-05T06:46:44;51.42;;;23.80;;
42662;SDS011;44330;51.360;6.686;2022-12-05T06:49:09;51.20;;;22.75;;
42662;SDS011;44330;51.360;6.686;2022-12-05T06:51:35;41.60;;;20.20;;
42662;SDS011;44330;51.360;6.686;2022-12-05T06:54:01;48.55;;;22.80;;
42662;SDS011;44330;51.360;6.686;2022-12-05T06:56:27;48.00;;;22.65;;
42662;SDS011;44330;51.360;6.686;2022-12-05T06:58:53;46.08;;;22.58;;
42662;SDS011;44330;51.360;6.686;2022-12-05T07:01:20;47.10;;;22.75;;
42662;SDS011;44330;51.360;6.686;2022-12-05T07:04:03;49.33;;;22.55;;
42662;SDS011;44330;51.360;6.686;2022-12-05T07:06:31;43.65;;;21.95;;
42662;SDS011;44330;51.360;6.686;2022-12-05T07:08:58;44.67;;;20.98;;
42662;SDS011;44330;51.360;6.686;2022-12-05T07:11:24;47.65;;;22.23;;
42662;SDS011;44330;51.360;6.686;2022-12-05T07:13:49;48.00;;;21.65;;
42662;SDS011;44330;51.360;6.686;2022-12-05T07:16:15;42.53;;;21.98;;
42662;SDS011;44330;51.360;6.686;2022-12-05T07:18:41;45.17;;;20.45;;
42662;SDS011;44330;51.360;6.686;2022-12-05T07:21:08;39.53;;;19.73;;
42662;SDS011;44330;51.360;6.686;2022-12-05T07:23:36;40.38;;;20.17;;
42662;SDS011;44330;51.360;6.686;2022-12-05T07:26:09;38.33;;;19.23;;
42662;SDS011;44330;51.360;6.686;2022-12-05T07:28:37;40.45;;;20.30;;
42662;SDS011;44330;51.360;6.686;2022-12-05T07:31:03;41.22;;;19.90;;
42662;SDS011;44330;51.360;6.686;2022-12-05T07:33:41;39.45;;;19.63;;
42662;SDS011;44330;51.360;6.686;2022-12-05T07:36:09;35.15;;;17.77;;
42662;SDS011;44330;51.360;6.686;2022-12-05T07:38:36;41.30;;;19.98;;
42662;SDS011;44330;51.360;6.686;2022-12-05T07:41:21;37.35;;;19.23;;
42662;SDS011;44330;51.360;6.686;2022-12-05T07:49:32;36.15;;;18.40;;
42662;SDS011;44330;51.360;6.686;2022-12-05T07:51:58;37.53;;;19.30;;
42662;SDS011;44330;51.360;6.686;2022-12-05T07:54:23;45.15;;;21.65;;
42662;SDS011;44330;51.360;6.686;2022-12-05T07:56:49;36.47;;;19.20;;
42662;SDS011;44330;51.360;6.686;2022-12-05T07:59:14;40.45;;;20.23;;
42662;SDS011;44330;51.360;6.686;2022-12-05T08:01:40;37.25;;;19.58;;
42662;SDS011;44330;51.360;6.686;2022-12-05T08:04:05;39.30;;;20.52;;
42662;SDS011;44330;51.360;6.686;2022-12-05T08:06:32;41.33;;;20.17;;
42662;SDS011;44330;51.360;6.686;2022-12-05T08:08:58;37.38;;;20.13;;
42662;SDS011;44330;51.360;6.686;2022-12-05T08:11:24;41.90;;;21.60;;
42662;SDS011;44330;51.360;6.686;2022-12-05T08:13:52;39.20;;;20.35;;
42662;SDS011;44330;51.360;6.686;2022-12-05T08:16:19;38.13;;;19.95;;
42662;SDS011;44330;51.360;6.686;2022-12-05T08:18:52;37.38;;;18.98;;
42662;SDS011;44330;51.360;6.686;2022-12-05T08:21:22;36.47;;;18.90;;
42662;SDS011;44330;51.360;6.686;2022-12-05T08:23:49;37.58;;;18.00;;
42662;SDS011;44330;51.360;6.686;2022-12-05T08:26:20;34.67;;;18.25;;
42662;SDS011;44330;51.360;6.686;2022-12-05T08:28:53;38.38;;;19.35;;
42662;SDS011;44330;51.360;6.686;2022-12-05T08:31:41;33.47;;;17.63;;
42662;SDS011;44330;51.360;6.686;2022-12-05T08:34:11;33.38;;;17.85;;
42662;SDS011;44330;51.360;6.686;2022-12-05T08:36:42;33.28;;;17.20;;
42662;SDS011;44330;51.360;6.686;2022-12-05T08:39:12;35.10;;;17.85;;
42662;SDS011;44330;51.360;6.686;2022-12-05T08:41:40;33.85;;;16.98;;
42662;SDS011;44330;51.360;6.686;2022-12-05T08:44:09;31.40;;;17.25;;
42662;SDS011;44330;51.360;6.686;2022-12-05T08:46:38;31.92;;;16.23;;
42662;SDS011;44330;51.360;6.686;2022-12-05T08:49:04;30.48;;;17.55;;
42662;SDS011;44330;51.360;6.686;2022-12-05T08:51:30;28.90;;;16.38;;
42662;SDS011;44330;51.360;6.686;2022-12-05T08:53:56;29.50;;;15.88;;
42662;SDS011;44330;51.360;6.686;2022-12-05T08:56:22;30.13;;;15.32;;
42662;SDS011;44330;51.360;6.686;2022-12-05T08:58:48;27.50;;;15.23;;
42662;SDS011;44330;51.360;6.686;2022-12-05T09:01:19;27.80;;;15.00;;
42662;SDS011;44330;51.360;6.686;2022-12-05T09:03:52;28.95;;;14.82;;
42662;SDS011;44330;51.360;6.686;2022-12-05T09:06:22;28.30;;;14.95;;
42662;SDS011;44330;51.360;6.686;2022-12-05T09:08:55;24.80;;;14.30;;
42662;SDS011;44330;51.360;6.686;2022-12-05T09:11:36;23.55;;;14.02;;
42662;SDS011;44330;51.360;6.686;2022-12-05T09:14:10;29.27;;;15.40;;
42662;SDS011;44330;51.360;6.686;2022-12-05T09:16:36;27.60;;;15.98;;
42662;SDS011;44330;51.360;6.686;2022-12-05T09:19:18;27.80;;;15.68;;
42662;SDS011;44330;51.360;6.686;2022-12-05T09:21:51;31.38;;;15.85;;
42662;SDS011;44330;51.360;6.686;2022-12-05T09:24:17;28.80;;;16.13;;
42662;SDS011;44330;51.360;6.686;2022-12-05T09:26:43;26.67;;;15.18;;
42662;SDS011;44330;51.360;6.686;2022-12-05T09:29:10;25.55;;;14.50;;
42662;SDS011;44330;51.360;6.686;2022-12-05T09:31:37;26.13;;;15.70;;
42662;SDS011;44330;51.360;6.686;2022-12-05T09:34:03;24.10;;;14.90;;
42662;SDS011;44330;51.360;6.686;2022-12-05T09:36:29;24.35;;;14.90;;
42662;SDS011;44330;51.360;6.686;2022-12-05T09:38:58;27.40;;;15.63;;
42662;SDS011;44330;51.360;6.686;2022-12-05T09:50:22;27.70;;;14.38;;
42662;SDS011;44330;51.360;6.686;2022-12-05T09:55:56;23.73;;;14.85;;
42662;SDS011;44330;51.360;6.686;2022-12-05T10:15:16;22.42;;;14.70;;
42662;SDS011;44330;51.360;6.686;2022-12-05T10:23:33;25.17;;;15.73;;
42662;SDS011;44330;51.360;6.686;2022-12-05T10:26:04;23.25;;;13.80;;
42662;SDS011;44330;51.360;6.686;2022-12-05T10:28:35;25.83;;;14.18;;
42662;SDS011;44330;51.360;6.686;2022-12-05T10:31:23;25.38;;;15.02;;
42662;SDS011;44330;51.360;6.686;2022-12-05T10:34:24;20.77;;;13.93;;
42662;SDS011;44330;51.360;6.686;2022-12-05T10:36:59;20.75;;;13.27;;
42662;SDS011;44330;51.360;6.686;2022-12-05T10:39:34;19.73;;;13.55;;
42662;SDS011;44330;51.360;6.686;2022-12-05T10:41:59;22.42;;;14.43;;
42662;SDS011;44330;51.360;6.686;2022-12-05T10:44:25;19.67;;;13.25;;
42662;SDS011;44330;51.360;6.686;2022-12-05T10:46:54;18.75;;;12.45;;
42662;SDS011;44330;51.360;6.686;2022-12-05T10:49:19;21.80;;;13.40;;
42662;SDS011;44330;51.360;6.686;2022-12-05T10:51:46;19.48;;;12.98;;
42662;SDS011;44330;51.360;6.686;2022-12-05T10:57:20;19.30;;;12.65;;
42662;SDS011;44330;51.360;6.686;2022-12-05T10:59:51;21.23;;;12.85;;
42662;SDS011;44330;51.360;6.686;2022-12-05T11:02:25;21.50;;;13.77;;
42662;SDS011;44330;51.360;6.686;2022-12-05T11:04:55;22.23;;;13.80;;
42662;SDS011;44330;51.360;6.686;2022-12-05T11:10:43;22.60;;;13.50;;
42662;SDS011;44330;51.360;6.686;2022-12-05T11:13:15;22.17;;;13.93;;
42662;SDS011;44330;51.360;6.686;2022-12-05T11:15:48;26.90;;;15.43;;
42662;SDS011;44330;51.360;6.686;2022-12-05T11:20:49;24.02;;;14.98;;
42662;SDS011;44330;51.360;6.686;2022-12-05T11:23:16;25.73;;;15.48;;
42662;SDS011;44330;51.360;6.686;2022-12-05T11:25:48;26.13;;;16.25;;
42662;SDS011;44330;51.360;6.686;2022-12-05T11:30:54;26.73;;;15.98;;
42662;SDS011;44330;51.360;6.686;2022-12-05T11:33:23;25.42;;;15.48;;
42662;SDS011;44330;51.360;6.686;2022-12-05T11:35:58;22.33;;;15.52;;
42662;SDS011;44330;51.360;6.686;2022-12-05T11:38:44;23.50;;;15.13;;
42662;SDS011;44330;51.360;6.686;2022-12-05T11:44:13;28.27;;;17.40;;
42662;SDS011;44330;51.360;6.686;2022-12-05T11:47:06;29.85;;;17.08;;
42662;SDS011;44330;51.360;6.686;2022-12-05T11:58:09;27.70;;;17.35;;
42662;SDS011;44330;51.360;6.686;2022-12-05T12:06:32;24.98;;;15.38;;
42662;SDS011;44330;51.360;6.686;2022-12-05T12:09:20;24.52;;;15.27;;
42662;SDS011;44330;51.360;6.686;2022-12-05T12:12:14;23.60;;;15.07;;
42662;SDS011;44330;51.360;6.686;2022-12-05T12:18:08;19.30;;;11.60;;
42662;SDS011;44330;51.360;6.686;2022-12-05T12:20:47;25.67;;;15.80;;
42662;SDS011;44330;51.360;6.686;2022-12-05T12:23:31;24.55;;;15.10;;
42662;SDS011;44330;51.360;6.686;2022-12-05T12:26:06;25.23;;;15.52;;
42662;SDS011;44330;51.360;6.686;2022-12-05T12:28:42;27.33;;;16.17;;
42662;SDS011;44330;51.360;6.686;2022-12-05T12:40:13;26.75;;;15.82;;
42662;SDS011;44330;51.360;6.686;2022-12-05T12:48:21;22.10;;;13.15;;
42662;SDS011;44330;51.360;6.686;2022-12-05T12:51:02;17.30;;;11.30;;
42662;SDS011;44330;51.360;6.686;2022-12-05T12:53:37;19.10;;;11.70;;
42662;SDS011;44330;51.360;6.686;2022-12-05T12:56:27;20.20;;;11.55;;
42662;SDS011;44330;51.360;6.686;2022-12-05T13:05:07;20.05;;;11.40;;
42662;SDS011;44330;51.360;6.686;2022-12-05T13:07:48;18.75;;;11.88;;
42662;SDS011;44330;51.360;6.686;2022-12-05T13:10:27;17.98;;;11.15;;
42662;SDS011;44330;51.360;6.686;2022-12-05T13:13:02;16.42;;;11.15;;
42662;SDS011;44330;51.360;6.686;2022-12-05T13:15:43;21.35;;;12.52;;
42662;SDS011;44330;51.360;6.686;2022-12-05T13:18:17;18.15;;;12.13;;
42662;SDS011;44330;51.360;6.686;2022-12-05T13:20:48;17.42;;;11.38;;
42662;SDS011;44330;51.360;6.686;2022-12-05T13:23:17;16.85;;;11.35;;
42662;SDS011;44330;51.360;6.686;2022-12-05T13:25:45;17.58;;;11.40;;
42662;SDS011;44330;51.360;6.686;2022-12-05T13:28:17;16.60;;;11.43;;
42662;SDS011;44330;51.360;6.686;2022-12-05T13:30:51;16.02;;;11.07;;
42662;SDS011;44330;51.360;6.686;2022-12-05T13:33:33;17.58;;;11.60;;
42662;SDS011;44330;51.360;6.686;2022-12-05T13:36:09;17.08;;;11.60;;
42662;SDS011;44330;51.360;6.686;2022-12-05T13:39:02;15.15;;;10.38;;
42662;SDS011;44330;51.360;6.686;2022-12-05T13:42:23;16.15;;;10.23;;
42662;SDS011;44330;51.360;6.686;2022-12-05T13:47:25;14.95;;;10.07;;
42662;SDS011;44330;51.360;6.686;2022-12-05T13:50:08;14.43;;;10.13;;
42662;SDS011;44330;51.360;6.686;2022-12-05T13:52:58;14.20;;;9.50;;
42662;SDS011;44330;51.360;6.686;2022-12-05T13:57:56;13.00;;;9.50;;
42662;SDS011;44330;51.360;6.686;2022-12-05T14:00:26;15.30;;;10.57;;
42662;SDS011;44330;51.360;6.686;2022-12-05T14:03:05;17.92;;;12.30;;
42662;SDS011;44330;51.360;6.686;2022-12-05T14:15:46;16.25;;;10.82;;
42662;SDS011;44330;51.360;6.686;2022-12-05T14:28:47;14.32;;;9.13;;
42662;SDS011;44330;51.360;6.686;2022-12-05T14:34:24;13.15;;;9.35;;
42662;SDS011;44330;51.360;6.686;2022-12-05T14:39:21;13.57;;;9.85;;
42662;SDS011;44330;51.360;6.686;2022-12-05T14:41:58;16.50;;;11.65;;
42662;SDS011;44330;51.360;6.686;2022-12-05T14:44:26;20.33;;;12.73;;
42662;SDS011;44330;51.360;6.686;2022-12-05T14:46:57;15.27;;;11.00;;
42662;SDS011;44330;51.360;6.686;2022-12-05T14:52:25;15.70;;;10.10;;
42662;SDS011;44330;51.360;6.686;2022-12-05T14:54:54;12.55;;;9.07;;
42662;SDS011;44330;51.360;6.686;2022-12-05T14:57:26;14.18;;;9.90;;
42662;SDS011;44330;51.360;6.686;2022-12-05T14:59:54;15.07;;;9.75;;
42662;SDS011;44330;51.360;6.686;2022-12-05T15:02:24;14.82;;;10.02;;
42662;SDS011;44330;51.360;6.686;2022-12-05T15:05:41;19.50;;;12.35;;
42662;SDS011;44330;51.360;6.686;2022-12-05T15:07:41;20.85;;;13.32;;
42662;SDS011;44330;51.360;6.686;2022-12-05T15:24:04;19.50;;;11.98;;
42662;SDS011;44330;51.360;6.686;2022-12-05T15:26:53;20.42;;;13.20;;
42662;SDS011;44330;51.360;6.686;2022-12-05T15:31:50;18.75;;;12.85;;
42662;SDS011;44330;51.360;6.686;2022-12-05T15:34:28;18.13;;;11.68;;
42662;SDS011;44330;51.360;6.686;2022-12-05T15:37:01;17.80;;;11.77;;
42662;SDS011;44330;51.360;6.686;2022-12-05T15:39:41;16.08;;;10.57;;
42662;SDS011;44330;51.360;6.686;2022-12-05T15:44:49;17.63;;;11.77;;
42662;SDS011;44330;51.360;6.686;2022-12-05T15:47:24;18.48;;;12.10;;
42662;SDS011;44330;51.360;6.686;2022-12-05T15:49:50;17.48;;;11.70;;
42662;SDS011;44330;51.360;6.686;2022-12-05T15:55:13;23.10;;;12.80;;
42662;SDS011;44330;51.360;6.686;2022-12-05T15:57:46;18.35;;;12.95;;
42662;SDS011;44330;51.360;6.686;2022-12-05T16:00:18;21.98;;;13.80;;
42662;SDS011;44330;51.360;6.686;2022-12-05T16:03:11;20.85;;;13.88;;
42662;SDS011;44330;51.360;6.686;2022-12-05T16:08:13;22.40;;;14.80;;
42662;SDS011;44330;51.360;6.686;2022-12-05T16:10:39;23.08;;;13.75;;
42662;SDS011;44330;51.360;6.686;2022-12-05T16:13:11;21.58;;;13.85;;
42662;SDS011;44330;51.360;6.686;2022-12-05T16:15:45;26.63;;;15.38;;
42662;SDS011;44330;51.360;6.686;2022-12-05T16:18:23;24.35;;;14.77;;
42662;SDS011;44330;51.360;6.686;2022-12-05T16:33:16;19.80;;;12.88;;
42662;SDS011;44330;51.360;6.686;2022-12-05T16:36:19;20.20;;;11.35;;
42662;SDS011;44330;51.360;6.686;2022-12-05T16:39:23;19.92;;;12.27;;
42662;SDS011;44330;51.360;6.686;2022-12-05T16:42:33;21.48;;;11.98;;
42662;SDS011;44330;51.360;6.686;2022-12-05T16:48:20;20.55;;;11.82;;
42662;SDS011;44330;51.360;6.686;2022-12-05T16:53:42;22.23;;;13.40;;
42662;SDS011;44330;51.360;6.686;2022-12-05T16:58:46;23.13;;;13.15;;
42662;SDS011;44330;51.360;6.686;2022-12-05T17:01:17;23.40;;;12.68;;
42662;SDS011;44330;51.360;6.686;2022-12-05T17:03:52;18.15;;;12.13;;
42662;SDS011;44330;51.360;6.686;2022-12-05T17:06:19;21.40;;;12.75;;
42662;SDS011;44330;51.360;6.686;2022-12-05T17:08:47;22.05;;;14.02;;
42662;SDS011;44330;51.360;6.686;2022-12-05T17:11:13;22.35;;;12.60;;
42662;SDS011;44330;51.360;6.686;2022-12-05T17:13:44;18.27;;;12.52;;
42662;SDS011;44330;51.360;6.686;2022-12-05T17:16:12;23.30;;;14.10;;
42662;SDS011;44330;51.360;6.686;2022-12-05T17:18:39;23.73;;;14.63;;
42662;SDS011;44330;51.360;6.686;2022-12-05T17:21:05;21.55;;;12.88;;
42662;SDS011;44330;51.360;6.686;2022-12-05T17:23:33;22.75;;;14.38;;
42662;SDS011;44330;51.360;6.686;2022-12-05T17:26:11;21.27;;;13.82;;
42662;SDS011;44330;51.360;6.686;2022-12-05T17:31:08;20.60;;;11.95;;
42662;SDS011;44330;51.360;6.686;2022-12-05T17:33:41;21.58;;;12.75;;
42662;SDS011;44330;51.360;6.686;2022-12-05T17:36:07;22.73;;;14.98;;
42662;SDS011;44330;51.360;6.686;2022-12-05T17:38:35;21.23;;;12.05;;
42662;SDS011;44330;51.360;6.686;2022-12-05T17:41:01;22.73;;;14.27;;
42662;SDS011;44330;51.360;6.686;2022-12-05T17:43:27;23.13;;;13.82;;
42662;SDS011;44330;51.360;6.686;2022-12-05T17:45:52;22.52;;;13.82;;
42662;SDS011;44330;51.360;6.686;2022-12-05T17:48:19;22.48;;;13.85;;
42662;SDS011;44330;51.360;6.686;2022-12-05T17:50:45;22.15;;;13.43;;
42662;SDS011;44330;51.360;6.686;2022-12-05T17:53:12;25.02;;;14.80;;
42662;SDS011;44330;51.360;6.686;2022-12-05T17:55:46;25.35;;;14.25;;
42662;SDS011;44330;51.360;6.686;2022-12-05T17:58:12;23.58;;;15.00;;
42662;SDS011;44330;51.360;6.686;2022-12-05T18:00:42;28.95;;;16.20;;
42662;SDS011;44330;51.360;6.686;2022-12-05T18:03:16;27.40;;;16.27;;
42662;SDS011;44330;51.360;6.686;2022-12-05T18:05:43;24.33;;;14.55;;
42662;SDS011;44330;51.360;6.686;2022-12-05T18:08:16;23.70;;;13.98;;
42662;SDS011;44330;51.360;6.686;2022-12-05T18:57:12;28.67;;;16.35;;
42662;SDS011;44330;51.360;6.686;2022-12-05T19:03:09;23.63;;;13.65;;
42662;SDS011;44330;51.360;6.686;2022-12-05T19:05:38;22.88;;;14.88;;
42662;SDS011;44330;51.360;6.686;2022-12-05T19:08:06;22.52;;;15.00;;
42662;SDS011;44330;51.360;6.686;2022-12-05T19:10:34;23.77;;;14.77;;
42662;SDS011;44330;51.360;6.686;2022-12-05T19:13:10;20.52;;;13.23;;